EW5612 Weather Reports


Display with metric or nautical units.
time (UTC)temp
F
wind
direction
speed
MPH
gust
MPH
rain 1hr
in
rain 24hr
in
rain mn
in
humidity
%
barometer
mb
20210123010227 58 296 1.0 5.0 0.00 0.03 0.03 88 1014.7
20210123005728 59 303 1.0 6.0 0.00 0.03 0.03 88 1014.5
20210123005229 59 340 2.0 9.0 0.00 0.03 0.03 87 1014.4
20210123004728 60 326 1.0 6.0 0.00 0.03 0.03 87 1014.3
20210123004235 60 328 0.0 8.0 0.00 0.03 0.03 87 1014.2
20210123003726 60 353 1.0 9.0 0.00 0.03 0.03 87 1014.2
20210123003229 61 356 0.0 3.0 0.00 0.03 0.03 86 1014.1
20210123002728 61 0 1.0 6.0 0.00 0.03 0.03 86 1014.0
20210123002227 61 343 1.0 6.0 0.00 0.03 0.03 85 1013.9
20210123001727 62 0 1.0 5.0 0.00 0.03 0.03 85 1013.8
20210123001226 62 325 1.0 9.0 0.00 0.03 0.03 84 1013.8
20210123000726 63 335 1.0 6.0 0.00 0.03 0.03 84 1013.7
20210123000228 63 327 1.0 6.0 0.00 0.03 0.03 84 1013.6
20210122235726 64 337 0.0 3.0 0.00 0.03 0.03 83 1013.5
20210122235227 64 337 2.0 8.0 0.00 0.03 0.03 83 1013.5
20210122234726 64 358 1.0 9.0 0.00 0.03 0.03 82 1013.4
20210122234227 65 331 1.0 9.0 0.00 0.03 0.03 81 1013.3
20210122233736 66 333 2.0 9.0 0.00 0.03 0.03 80 1013.4
20210122233227 67 330 4.0 12.0 0.00 0.03 0.03 78 1013.3
20210122232727 68 324 2.0 12.0 0.00 0.03 0.03 76 1013.2
20210122232227 69 353 2.0 9.0 0.00 0.03 0.03 73 1013.2
20210122231726 70 308 3.0 9.0 0.00 0.03 0.03 71 1013.0
20210122231231 71 311 1.0 3.0 0.00 0.03 0.03 70 1012.8
20210122230727 71 338 1.0 8.0 0.00 0.03 0.03 70 1012.8
20210122230232 72 319 1.0 8.0 0.00 0.03 0.03 69 1012.7
20210122225728 72 323 1.0 7.0 0.00 0.03 0.03 68 1012.8
20210122225227 73 13 2.0 12.0 0.00 0.03 0.03 67 1012.8
20210122224727 73 336 2.0 8.0 0.00 0.03 0.03 64 1012.7
20210122224226 74 342 0.0 1.0 0.00 0.03 0.03 58 1012.6
20210122223726 74 300 0.0 2.0 0.00 0.03 0.03 57 1012.6
20210122223232 74 325 1.0 3.0 0.00 0.03 0.03 57 1012.5
20210122222726 74 300 0.0 3.0 0.00 0.03 0.03 58 1012.5
20210122222227 74 321 3.0 8.0 0.00 0.03 0.03 56 1012.3
20210122221726 75 346 1.0 6.0 0.00 0.03 0.03 57 1012.3
20210122221230 75 300 0.0 5.0 0.00 0.03 0.03 55 1012.2
20210122220730 76 331 3.0 8.0 0.00 0.03 0.03 56 1012.1
20210122220227 76 325 0.0 0.0 0.00 0.03 0.03 55 1011.9
20210122215727 77 301 1.0 3.0 0.00 0.03 0.03 54 1011.9
20210122215226 77 291 0.0 2.0 0.00 0.03 0.03 53 1011.9
20210122214726 77 322 0.0 2.0 0.00 0.03 0.03 52 1011.8
20210122214227 77 274 0.0 0.0 0.00 0.03 0.03 51 1011.7
20210122213727 77 306 3.0 8.0 0.00 0.03 0.03 50 1011.7
20210122213227 77 252 0.0 0.0 0.00 0.03 0.03 51 1011.6
20210122212730 77 281 1.0 3.0 0.00 0.03 0.03 51 1011.6
20210122212227 77 313 2.0 8.0 0.00 0.03 0.03 50 1011.6
20210122211726 77 320 2.0 8.0 0.00 0.03 0.03 50 1011.5
20210122211226 77 266 0.0 1.0 0.00 0.03 0.03 51 1011.5
20210122210726 78 310 0.0 0.0 0.00 0.03 0.03 49 1011.5
20210122210230 77 250 0.0 0.0 0.00 0.03 0.03 50 1011.7
20210122205730 77 282 0.0 0.0 0.00 0.03 0.03 52 1011.7
20210122205226 77 297 0.0 0.0 0.00 0.03 0.03 50 1011.6
20210122204728 76 341 0.0 0.0 0.00 0.03 0.03 51 1011.6
20210122204227 76 308 0.0 1.0 0.00 0.03 0.03 54 1011.6
20210122203726 76 262 0.0 0.0 0.00 0.03 0.03 56 1011.7
20210122203226 75 300 0.0 0.0 0.00 0.03 0.03 55 1011.7
20210122202731 75 339 0.0 0.0 0.00 0.03 0.03 56 1011.8
20210122202233 75 295 0.0 0.0 0.00 0.03 0.03 57 1011.8
20210122201726 75 330 0.0 0.0 0.00 0.03 0.03 57 1011.8
20210122201227 75 333 0.0 1.0 0.00 0.03 0.03 56 1011.8
20210122200725 76 315 0.0 0.0 0.00 0.03 0.03 59 1011.9
20210122200231 76 273 0.0 0.0 0.00 0.03 0.03 59 1012.0
20210122195726 75 219 0.0 0.0 0.00 0.03 0.03 60 1012.0
20210122195226 75 309 0.0 0.0 0.00 0.03 0.03 60 1012.1
20210122194725 75 299 0.0 0.0 0.00 0.03 0.03 60 1012.1
20210122194225 75 332 0.0 0.0 0.00 0.03 0.03 62 1012.2
20210122193725 74 311 0.0 0.0 0.00 0.03 0.03 60 1012.3
20210122193225 74 279 0.0 0.0 0.00 0.03 0.03 61 1012.4
20210122192725 74 292 0.0 0.0 0.00 0.03 0.03 61 1012.4
20210122192225 74 255 0.0 0.0 0.00 0.03 0.03 60 1012.5
20210122191727 73 284 0.0 0.0 0.00 0.03 0.03 63 1012.5
20210122191225 73 256 0.0 0.0 0.00 0.03 0.03 64 1012.5
20210122190726 72 247 0.0 0.0 0.00 0.03 0.03 66 1012.6
20210122190227 72 306 0.0 0.0 0.00 0.03 0.03 68 1012.6
20210122185725 71 316 0.0 0.0 0.00 0.03 0.03 69 1012.7
20210122185230 70 285 0.0 0.0 0.00 0.03 0.03 71 1012.8
20210122184725 70 308 0.0 0.0 0.00 0.03 0.03 72 1012.9
20210122184230 70 350 0.0 0.0 0.00 0.03 0.03 72 1013.1
20210122183727 70 23 0.0 0.0 0.00 0.03 0.03 72 1013.1
20210122183229 70 297 0.0 0.0 0.00 0.03 0.03 73 1013.2
20210122182725 69 264 0.0 0.0 0.00 0.03 0.03 73 1013.4
20210122182225 69 263 0.0 0.0 0.00 0.03 0.03 72 1013.5
20210122181725 70 251 0.0 0.0 0.00 0.03 0.03 74 1013.6
20210122181225 70 230 0.0 0.0 0.00 0.03 0.03 76 1013.7
20210122180726 69 243 0.0 0.0 0.00 0.03 0.03 79 1013.7
20210122180225 69 243 0.0 0.0 0.00 0.03 0.03 80 1013.8
20210122175725 69 243 0.0 0.0 0.00 0.03 0.03 80 1013.9
20210122175225 69 243 0.0 0.0 0.00 0.03 0.03 81 1014.0
20210122174726 68 243 0.0 0.0 0.00 0.03 0.03 82 1014.1
20210122174225 67 243 0.0 0.0 0.00 0.03 0.03 84 1014.2
20210122173725 67 245 0.0 1.0 0.00 0.03 0.03 84 1014.1
20210122173228 67 288 0.0 0.0 0.00 0.03 0.03 86 1014.1
20210122172726 66 288 0.0 0.0 0.00 0.03 0.03 88 1014.2
20210122172227 66 288 0.0 0.0 0.00 0.03 0.03 90 1014.2
20210122171728 65 289 0.0 0.0 0.00 0.03 0.03 93 1014.3
20210122171225 64 280 0.0 0.0 0.00 0.03 0.03 96 1014.2
20210122170727 64 141 0.0 0.0 0.00 0.03 0.03 97 1014.4
20210122170225 63 141 0.0 0.0 0.00 0.03 0.03 98 1014.3
20210122165727 63 141 0.0 0.0 0.00 0.03 0.03 98 1014.4
20210122165226 62 141 0.0 0.0 0.00 0.03 0.03 98 1014.5
20210122164725 62 141 0.0 0.0 0.00 0.03 0.03 98 1014.5
20210122164227 62 141 0.0 0.0 0.00 0.03 0.03 98 1014.6
20210122163727 61 141 0.0 0.0 0.00 0.03 0.03 98 1014.7
20210122163226 61 141 0.0 0.0 0.00 0.03 0.03 98 1014.8
20210122162725 60 141 0.0 0.0 0.00 0.03 0.03 98 1014.7
20210122162228 60 141 0.0 0.0 0.00 0.03 0.03 98 1014.6
20210122161746 60 141 0.0 0.0 0.00 0.03 0.03 98 1014.6
20210122161228 60 141 0.0 0.0 0.00 0.03 0.03 98 1014.6
20210122160727 60 141 0.0 0.0 0.00 0.03 0.03 98 1014.6
20210122160224 59 141 0.0 0.0 0.00 0.03 0.03 98 1014.5
20210122155724 59 141 0.0 0.0 0.00 0.03 0.03 98 1014.6
20210122155225 59 141 0.0 0.0 0.00 0.03 0.03 98 1014.6
20210122154724 59 141 0.0 0.0 0.00 0.03 0.03 98 1014.7
20210122154225 59 141 0.0 0.0 0.00 0.03 0.03 98 1014.7
20210122153725 58 141 0.0 0.0 0.00 0.03 0.03 98 1014.3
20210122153227 58 141 0.0 0.0 0.00 0.03 0.03 98 1014.1
20210122152725 57 141 0.0 0.0 0.00 0.03 0.03 98 1014.0
20210122152226 57 141 0.0 0.0 0.00 0.03 0.03 98 1013.9
20210122151727 57 141 0.0 0.0 0.00 0.03 0.03 98 1014.0
20210122151225 57 141 0.0 0.0 0.00 0.03 0.03 98 1014.1
20210122150726 57 141 0.0 0.0 0.00 0.03 0.03 97 1014.0
20210122150224 57 141 0.0 0.0 0.00 0.03 0.03 97 1014.1
20210122145729 57 141 0.0 0.0 0.00 0.03 0.03 98 1014.0
20210122145224 57 141 0.0 0.0 0.00 0.03 0.03 98 1013.9
20210122144724 57 141 0.0 0.0 0.00 0.03 0.03 98 1014.2
20210122144224 57 141 0.0 0.0 0.00 0.03 0.03 98 1014.2
20210122143726 57 141 0.0 0.0 0.00 0.03 0.03 98 1014.2
20210122143232 56 141 0.0 0.0 0.00 0.03 0.03 98 1014.2
20210122142725 56 141 0.0 0.0 0.00 0.03 0.03 97 1014.2
20210122142226 56 141 0.0 0.0 0.00 0.03 0.03 97 1014.2
20210122141728 56 141 0.0 0.0 0.00 0.03 0.03 97 1014.1
20210122141226 56 141 0.0 0.0 0.00 0.03 0.03 97 1014.0
20210122140725 56 141 0.0 0.0 0.00 0.03 0.03 97 1014.0
20210122140225 56 141 0.0 0.0 0.00 0.03 0.03 97 1013.9
20210122135724 56 141 0.0 0.0 0.00 0.03 0.03 97 1013.7
20210122135227 56 141 0.0 0.0 0.00 0.03 0.03 97 1013.6
20210122134726 56 141 0.0 0.0 0.00 0.03 0.03 97 1013.7
20210122134224 56 141 0.0 0.0 0.00 0.03 0.03 97 1013.9
20210122133725 56 141 0.0 0.0 0.00 0.03 0.03 97 1013.9
20210122133224 56 141 0.0 0.0 0.00 0.03 0.03 97 1013.9
20210122132724 56 141 0.0 0.0 0.00 0.03 0.03 97 1013.8
20210122132226 56 141 0.0 0.0 0.00 0.03 0.03 97 1013.9
20210122131725 56 141 0.0 0.0 0.00 0.03 0.03 97 1013.6
20210122131224 56 141 0.0 0.0 0.00 0.03 0.03 97 1013.6
20210122130724 56 141 0.0 0.0 0.00 0.03 0.03 97 1013.2
20210122130224 56 141 0.0 0.0 0.00 0.03 0.03 97 1012.9
20210122125728 56 141 0.0 0.0 0.00 0.03 0.03 97 1013.0
20210122125225 56 141 0.0 0.0 0.00 0.03 0.03 97 1012.9
20210122124724 56 141 0.0 0.0 0.00 0.03 0.03 97 1012.8
20210122124224 56 141 0.0 0.0 0.00 0.03 0.03 97 1013.0
20210122123725 56 141 0.0 0.0 0.00 0.03 0.03 97 1013.0
20210122123225 56 141 0.0 0.0 0.00 0.03 0.03 97 1013.1
20210122122724 57 141 0.0 0.0 0.00 0.03 0.03 97 1013.0
20210122122225 57 141 0.0 0.0 0.00 0.03 0.03 97 1012.8
20210122121725 57 141 0.0 0.0 0.00 0.03 0.03 97 1012.7
20210122121224 56 141 0.0 0.0 0.01 0.03 0.03 97 1012.6
20210122120737 56 141 0.0 0.0 0.03 0.03 0.03 97 1012.6
20210122120230 57 138 0.0 0.0 0.03 0.03 0.03 97 1012.3
20210122115724 57 137 0.0 0.0 0.03 0.03 0.03 97 1011.9
20210122115225 57 137 0.0 0.0 0.03 0.03 0.03 97 1011.5
20210122114737 57 137 0.0 0.0 0.03 0.03 0.03 97 1011.4
20210122114226 57 137 0.0 0.0 0.03 0.03 0.03 97 1011.3
20210122113724 57 137 0.0 0.0 0.03 0.03 0.03 97 1011.5
20210122113225 57 137 0.0 0.0 0.03 0.03 0.03 97 1011.2
20210122112734 57 147 0.0 0.0 0.03 0.03 0.03 97 1011.5
20210122112223 57 153 0.0 0.0 0.03 0.03 0.03 97 1011.6
20210122111728 57 153 0.0 0.0 0.03 0.03 0.03 97 1011.9
20210122111226 57 153 0.0 0.0 0.02 0.02 0.02 97 1011.8
20210122110724 57 154 0.0 0.0 0.00 0.00 0.00 97 1013.0
20210122110225 57 153 0.0 0.0 0.00 0.00 0.00 97 1012.4
20210122105729 57 153 0.0 0.0 0.00 0.00 0.00 97 1012.3
20210122105235 57 153 0.0 0.0 0.00 0.00 0.00 97 1012.3
20210122104724 57 154 0.0 0.0 0.00 0.00 0.00 97 1012.6
20210122104224 57 153 0.0 0.0 0.00 0.00 0.00 97 1012.5
20210122103725 57 154 0.0 0.0 0.00 0.00 0.00 97 1012.5
20210122103225 58 154 0.0 0.0 0.00 0.00 0.00 97 1012.4
20210122102726 58 154 0.0 0.0 0.00 0.00 0.00 97 1012.4
20210122102224 58 154 0.0 0.0 0.00 0.00 0.00 97 1012.5
20210122101726 58 154 0.0 0.0 0.00 0.00 0.00 97 1012.8
20210122101226 58 154 0.0 0.0 0.00 0.00 0.00 97 1012.9
20210122100724 58 154 0.0 0.0 0.00 0.00 0.00 97 1013.0
20210122100230 58 154 0.0 0.0 0.00 0.00 0.00 97 1013.0
20210122095725 58 154 0.0 0.0 0.00 0.00 0.00 97 1013.0
20210122095224 58 154 0.0 0.0 0.00 0.00 0.00 97 1013.0
20210122094726 58 154 0.0 0.0 0.00 0.00 0.00 97 1013.1
20210122094224 58 154 0.0 0.0 0.00 0.00 0.00 97 1013.2
20210122093724 58 154 0.0 0.0 0.00 0.00 0.00 97 1013.1
20210122093224 58 154 0.0 0.0 0.00 0.00 0.00 97 1013.0
20210122092727 58 154 0.0 0.0 0.00 0.00 0.00 97 1013.1
20210122092224 58 154 0.0 0.0 0.00 0.00 0.00 97 1013.0
20210122091723 58 154 0.0 0.0 0.00 0.00 0.00 97 1013.0
20210122091226 58 154 0.0 0.0 0.00 0.00 0.00 97 1013.0
20210122090724 58 154 0.0 0.0 0.00 0.00 0.00 97 1013.2
20210122090224 58 154 0.0 0.0 0.00 0.00 0.00 97 1013.2
20210122085723 58 154 0.0 0.0 0.00 0.00 0.00 97 1013.2
20210122085224 58 154 0.0 0.0 0.00 0.00 0.00 97 1013.2
20210122084725 58 154 0.0 0.0 0.00 0.00 0.00 97 1013.2
20210122084224 58 154 0.0 0.0 0.00 0.00 0.00 97 1013.2
20210122083724 58 154 0.0 0.0 0.00 0.00 0.00 97 1013.0
20210122083225 58 154 0.0 0.0 0.00 0.00 0.00 97 1012.8
20210122082724 58 154 0.0 0.0 0.00 0.00 0.00 97 1012.9
20210122082225 58 154 0.0 0.0 0.00 0.00 0.00 97 1013.0
20210122081723 59 154 0.0 0.0 0.00 0.00 0.00 97 1013.0
20210122081224 59 154 0.0 0.0 0.00 0.00 0.00 97 1013.0
20210122080724 59 154 0.0 0.0 0.00 0.00 0.00 97 1013.0
20210122080225 59 153 0.0 0.0 0.00 0.00 0.00 97 1013.0
20210122075725 59 153 0.0 0.0 0.00 0.00 0.00 97 1013.1
20210122075225 59 153 0.0 0.0 0.00 0.00 0.00 97 1013.2
20210122074725 59 153 0.0 0.0 0.00 0.00 0.00 97 1013.0
20210122074224 59 153 0.0 0.0 0.00 0.00 0.00 97 1013.1
20210122073724 59 153 0.0 0.0 0.00 0.00 0.00 97 1013.1
20210122073224 59 153 0.0 0.0 0.00 0.00 0.00 97 1013.0
20210122072728 59 153 0.0 0.0 0.00 0.00 0.00 97 1013.0
20210122072223 59 153 0.0 0.0 0.00 0.00 0.00 97 1013.1
20210122071724 59 153 0.0 0.0 0.00 0.00 0.00 97 1013.1
20210122071224 59 153 0.0 0.0 0.00 0.00 0.00 97 1013.1
20210122070728 59 153 0.0 0.0 0.00 0.00 0.00 97 1013.0
20210122070226 59 153 0.0 0.0 0.00 0.00 0.00 97 1012.9
20210122065724 58 153 0.0 0.0 0.00 0.00 0.00 97 1012.8
20210122065225 58 153 0.0 0.0 0.00 0.00 0.00 97 1012.7
20210122064723 58 153 0.0 0.0 0.00 0.00 0.00 97 1012.6
20210122064223 58 153 0.0 0.0 0.00 0.00 0.00 97 1012.4
20210122063726 58 153 0.0 0.0 0.00 0.00 0.00 97 1012.2
20210122063223 58 153 0.0 0.0 0.00 0.00 0.00 97 1012.1
20210122062724 58 153 0.0 0.0 0.00 0.00 0.00 97 1012.1
20210122062225 58 153 0.0 0.0 0.00 0.00 0.00 97 1012.3
20210122061723 58 152 0.0 0.0 0.00 0.01 0.00 97 1012.4
20210122061224 58 152 0.0 0.0 0.00 0.01 0.00 97 1012.3
20210122060724 58 152 0.0 0.0 0.00 0.01 0.00 96 1012.3
20210122060224 58 152 0.0 0.0 0.00 0.01 0.00 96 1012.4
20210122055723 58 152 0.0 0.0 0.00 0.01 0.01 96 1012.6
20210122055223 58 152 0.0 0.0 0.00 0.01 0.01 96 1012.7
20210122054724 58 152 0.0 0.0 0.00 0.01 0.01 96 1012.7
20210122054227 58 152 0.0 0.0 0.00 0.01 0.01 96 1012.7
20210122053724 58 152 0.0 0.0 0.00 0.01 0.01 96 1012.7
20210122053225 58 152 0.0 0.0 0.00 0.01 0.01 96 1012.8
20210122052723 58 152 0.0 0.0 0.00 0.01 0.01 96 1012.9
20210122052224 58 152 0.0 0.0 0.00 0.01 0.01 96 1012.9
20210122051724 58 152 0.0 0.0 0.00 0.01 0.01 96 1012.9
20210122051231 58 152 0.0 0.0 0.00 0.01 0.01 96 1013.0
20210122050723 58 152 0.0 0.0 0.00 0.01 0.01 96 1013.0
20210122050229 58 152 0.0 0.0 0.00 0.01 0.01 96 1013.1
20210122045724 58 152 0.0 0.0 0.00 0.01 0.01 96 1013.1
20210122045223 58 152 0.0 0.0 0.00 0.01 0.01 96 1013.1
20210122044724 59 152 0.0 0.0 0.00 0.02 0.01 96 1013.1
20210122044226 59 152 0.0 0.0 0.00 0.02 0.01 96 1013.1
20210122043724 59 152 0.0 0.0 0.00 0.02 0.01 96 1013.0
20210122043222 59 152 0.0 0.0 0.00 0.02 0.01 96 1012.8
20210122042725 59 152 0.0 0.0 0.00 0.02 0.01 96 1012.7
20210122042223 59 152 0.0 0.0 0.00 0.03 0.01 96 1012.5
20210122041723 59 152 0.0 0.0 0.00 0.03 0.01 96 1012.5
20210122041223 59 152 0.0 0.0 0.00 0.03 0.01 96 1012.5
20210122040725 59 152 0.0 0.0 0.00 0.03 0.01 96 1012.6
20210122040225 59 152 0.0 0.0 0.00 0.03 0.01 96 1012.6
20210122035723 59 152 0.0 0.0 0.00 0.03 0.01 96 1012.6
20210122035226 59 152 0.0 0.0 0.00 0.03 0.01 96 1012.7
20210122034727 59 152 0.0 0.0 0.00 0.03 0.01 96 1012.6
20210122034223 59 152 0.0 0.0 0.00 0.03 0.01 95 1012.5
20210122033723 59 152 0.0 0.0 0.00 0.03 0.01 95 1012.6
20210122033224 60 152 0.0 0.0 0.00 0.04 0.01 95 1012.4
20210122032728 60 152 0.0 0.0 0.00 0.04 0.01 95 1012.6
20210122032223 60 152 0.0 0.0 0.00 0.04 0.01 95 1012.7
20210122031728 60 152 0.0 0.0 0.00 0.04 0.01 95 1012.9
20210122031228 60 152 0.0 0.0 0.00 0.04 0.01 95 1012.9
20210122030723 60 152 0.0 0.0 0.00 0.05 0.01 95 1013.0
20210122030229 60 152 0.0 0.0 0.00 0.05 0.01 95 1013.0
20210122025722 60 152 0.0 0.0 0.00 0.05 0.01 95 1012.8
20210122025222 60 152 0.0 0.0 0.00 0.05 0.01 95 1012.7
20210122024725 60 152 0.0 0.0 0.00 0.05 0.01 95 1012.4
20210122024226 60 152 0.0 0.0 0.00 0.05 0.01 95 1012.5
20210122023725 60 152 0.0 0.0 0.00 0.05 0.01 95 1012.4
20210122023222 60 152 0.0 0.0 0.00 0.05 0.01 95 1012.4
20210122022723 60 152 0.0 0.0 0.00 0.06 0.01 95 1012.5
20210122022223 60 153 0.0 0.0 0.00 0.06 0.01 95 1012.7
20210122021723 60 152 0.0 0.0 0.00 0.06 0.01 95 1012.8
20210122021222 60 153 0.0 0.0 0.00 0.06 0.01 94 1012.9
20210122020723 60 153 0.0 0.0 0.00 0.06 0.01 94 1013.0
20210122020222 60 153 0.0 0.0 0.00 0.06 0.01 94 1013.4
20210122015733 60 153 0.0 0.0 0.00 0.06 0.01 94 1013.3
20210122015224 60 153 0.0 0.0 0.00 0.06 0.01 94 1013.2
20210122014729 60 153 0.0 0.0 0.00 0.07 0.01 94 1013.2
20210122014231 60 153 0.0 0.0 0.00 0.07 0.01 94 1013.3
20210122013723 60 153 0.0 0.0 0.00 0.07 0.01 94 1013.4
20210122013224 60 153 0.0 0.0 0.00 0.07 0.01 94 1013.4
20210122012724 60 153 0.0 0.0 0.00 0.07 0.01 94 1013.4
20210122012223 60 153 0.0 0.0 0.00 0.07 0.01 93 1013.4
20210122011723 60 153 0.0 0.0 0.00 0.07 0.01 93 1013.3
20210122011222 60 153 0.0 0.0 0.00 0.07 0.01 93 1013.4
20210122010723 60 153 0.0 0.0 0.00 0.07 0.01 93 1013.4